Time;durP1;ratioP1;P1;durP2;ratioP2;P2;SDS_P1;SDS_P2;PMS_P1;PMS_P2;Temp;Humidity;BMP_temperature;BMP_pressure;BME280_temperature;BME280_humidity;BME280_pressure;Samples;Min_cycle;Max_cycle;Signal;HPM_P1;HPM_P2
2022/11/18 00:00:49;;;;;;;4.10;1.30;;;11.40;99.90;;;;;;5029398;28;20025;-80
2022/11/18 00:03:16;;;;;;;1.90;1.00;;;11.50;99.90;;;;;;5040530;28;20107;-80
2022/11/18 00:05:41;;;;;;;1.85;0.93;;;11.50;99.90;;;;;;5026129;28;20269;-80
2022/11/18 00:08:07;;;;;;;2.75;0.82;;;11.50;99.90;;;;;;5048043;28;20129;-80
2022/11/18 00:10:38;;;;;;;1.97;0.77;;;11.50;99.90;;;;;;5028273;28;20032;-80
2022/11/18 00:15:47;;;;;;;2.13;0.70;;;11.60;99.90;;;;;;5031361;28;20044;-80
2022/11/18 00:18:13;;;;;;;1.50;0.87;;;11.50;99.90;;;;;;5028721;28;20022;-80
2022/11/18 00:20:39;;;;;;;1.98;0.80;;;11.50;99.90;;;;;;5003669;28;20598;-80
2022/11/18 00:23:04;;;;;;;1.77;0.90;;;11.50;99.90;;;;;;5035293;28;20037;-81
2022/11/18 00:25:32;;;;;;;1.63;0.90;;;11.60;99.90;;;;;;5019429;28;21345;-80
2022/11/18 00:27:58;;;;;;;1.67;0.90;;;11.50;99.90;;;;;;5025124;28;20036;-80
2022/11/18 00:30:23;;;;;;;1.67;0.80;;;11.50;99.90;;;;;;5013751;28;20032;-80
2022/11/18 00:32:49;;;;;;;1.38;0.90;;;11.60;99.90;;;;;;5004862;28;20450;-81
2022/11/18 00:35:15;;;;;;;2.43;0.70;;;11.60;99.90;;;;;;5004828;28;20028;-80
2022/11/18 00:37:40;;;;;;;1.17;0.60;;;11.60;99.90;;;;;;5006441;28;20029;-80
2022/11/18 00:40:06;;;;;;;1.93;0.97;;;11.60;99.90;;;;;;5020753;28;20305;-80
2022/11/18 00:42:50;;;;;;;2.00;0.80;;;11.60;99.90;;;;;;5005106;28;20036;-80
2022/11/18 00:45:17;;;;;;;2.17;0.98;;;11.60;99.90;;;;;;4988089;28;20388;-80
2022/11/18 00:47:43;;;;;;;2.05;1.00;;;11.60;99.90;;;;;;5045773;28;20493;-80
2022/11/18 00:50:08;;;;;;;2.67;1.00;;;11.70;99.90;;;;;;5027333;28;20091;-80
2022/11/18 00:52:34;;;;;;;3.10;0.85;;;11.70;99.90;;;;;;5014697;28;20378;-80
2022/11/18 00:55:00;;;;;;;3.33;0.90;;;11.70;99.90;;;;;;5023306;28;20037;-80
2022/11/18 00:57:25;;;;;;;1.40;0.70;;;11.70;99.90;;;;;;5022661;28;20025;-80
2022/11/18 00:59:51;;;;;;;1.23;0.73;;;11.70;99.90;;;;;;5030789;28;20033;-80
2022/11/18 01:02:17;;;;;;;1.90;0.90;;;11.80;99.90;;;;;;4983347;28;20032;-79
2022/11/18 01:04:42;;;;;;;1.40;0.70;;;11.80;99.90;;;;;;5039312;28;20107;-80
2022/11/18 01:07:08;;;;;;;2.20;0.70;;;11.80;99.90;;;;;;5033916;28;20028;-80
2022/11/18 01:09:34;;;;;;;1.73;0.80;;;11.80;99.90;;;;;;5034253;28;20041;-80
2022/11/18 01:14:45;;;;;;;1.77;0.80;;;11.80;99.90;;;;;;5043806;28;20018;-80
2022/11/18 01:17:10;;;;;;;1.42;0.90;;;11.90;99.90;;;;;;5014152;28;20045;-81
2022/11/18 01:19:36;;;;;;;1.30;0.80;;;11.90;99.90;;;;;;5023360;28;20256;-80
2022/11/18 01:22:02;;;;;;;1.92;0.88;;;11.90;99.90;;;;;;5032936;28;20267;-81
2022/11/18 01:24:32;;;;;;;1.00;0.77;;;12.00;99.90;;;;;;5023813;28;20235;-80
2022/11/18 01:26:59;;;;;;;1.50;0.70;;;11.90;99.90;;;;;;5026224;28;20784;-80
2022/11/18 01:29:25;;;;;;;1.25;0.98;;;12.00;99.90;;;;;;5042492;28;20064;-80
2022/11/18 01:31:51;;;;;;;2.00;0.90;;;12.00;99.90;;;;;;5029141;28;20124;-80
2022/11/18 01:34:16;;;;;;;1.43;0.80;;;12.00;99.90;;;;;;5029396;28;20417;-80
2022/11/18 01:36:42;;;;;;;1.00;0.80;;;12.00;99.90;;;;;;5026366;28;20354;-80
2022/11/18 01:39:08;;;;;;;1.00;0.90;;;12.00;99.90;;;;;;5022102;28;20041;-81
2022/11/18 01:41:33;;;;;;;1.50;0.88;;;12.00;99.90;;;;;;5030908;28;20757;-80
2022/11/18 01:44:01;;;;;;;1.17;0.80;;;12.00;99.90;;;;;;5017876;28;20078;-80
2022/11/18 01:46:30;;;;;;;1.58;0.80;;;12.00;99.90;;;;;;5028927;28;20126;-81
2022/11/18 01:49:02;;;;;;;1.33;0.70;;;12.00;99.90;;;;;;5005338;28;20056;-80
2022/11/18 01:51:33;;;;;;;1.77;1.00;;;12.10;99.90;;;;;;5032108;28;20262;-80
2022/11/18 01:54:05;;;;;;;2.35;0.90;;;12.10;99.90;;;;;;5030633;28;20049;-79
2022/11/18 01:56:45;;;;;;;1.63;0.90;;;12.10;99.90;;;;;;5021184;28;20098;-80
2022/11/18 01:59:16;;;;;;;2.78;0.90;;;12.00;99.90;;;;;;5015396;28;20021;-80
2022/11/18 02:01:42;;;;;;;2.10;0.77;;;12.00;99.90;;;;;;5033173;28;20063;-80
2022/11/18 02:04:08;;;;;;;3.67;1.00;;;12.00;99.90;;;;;;5002620;28;20025;-80
2022/11/18 02:06:35;;;;;;;1.40;0.75;;;11.90;99.90;;;;;;5003814;28;20076;-80
2022/11/18 02:09:02;;;;;;;1.88;0.80;;;11.90;99.90;;;;;;5034633;28;20144;-81
2022/11/18 02:14:13;;;;;;;1.10;0.70;;;11.80;99.90;;;;;;5016699;28;20504;-81
2022/11/18 02:17:11;;;;;;;0.80;0.67;;;11.80;99.90;;;;;;5027672;28;20054;-80
2022/11/18 02:19:40;;;;;;;1.48;0.70;;;11.80;99.90;;;;;;5003396;28;20898;-80
2022/11/18 02:22:35;;;;;;;2.05;0.80;;;11.70;99.90;;;;;;4998034;28;20344;-80
2022/11/18 02:25:15;;;;;;;1.52;0.60;;;11.70;99.90;;;;;;5006296;28;20235;-80
2022/11/18 02:28:00;;;;;;;0.87;0.70;;;11.60;99.90;;;;;;5039677;28;20040;-80
2022/11/18 02:30:27;;;;;;;0.80;0.60;;;11.60;99.90;;;;;;5017417;28;20090;-80
2022/11/18 02:33:06;;;;;;;0.70;0.57;;;11.60;99.90;;;;;;5039528;28;20025;-80
2022/11/18 02:35:40;;;;;;;1.63;0.70;;;11.50;99.90;;;;;;5025017;28;20098;-81
2022/11/18 02:38:10;;;;;;;2.20;0.75;;;11.50;99.90;;;;;;5023310;28;20266;-80
2022/11/18 02:40:49;;;;;;;1.33;0.60;;;11.50;99.90;;;;;;5021130;28;20041;-81
2022/11/18 02:43:26;;;;;;;0.90;0.70;;;11.50;99.90;;;;;;5026558;28;20052;-80
2022/11/18 02:45:57;;;;;;;1.25;0.70;;;11.50;99.90;;;;;;5002315;28;20025;-80
2022/11/18 02:48:27;;;;;;;1.88;0.82;;;11.50;99.90;;;;;;5040904;28;20465;-80
2022/11/18 02:50:54;;;;;;;1.63;0.70;;;11.40;99.90;;;;;;4997799;28;20118;-80
2022/11/18 02:53:20;;;;;;;1.40;0.70;;;11.40;99.90;;;;;;5036145;28;20036;-80
2022/11/18 02:55:48;;;;;;;1.17;0.70;;;11.40;99.90;;;;;;4983874;28;1092193;-80
2022/11/18 02:58:17;;;;;;;1.63;0.70;;;11.40;99.90;;;;;;5026601;28;20025;-80
2022/11/18 03:00:44;;;;;;;1.00;0.60;;;11.40;99.90;;;;;;5024209;28;20029;-80
2022/11/18 03:03:36;;;;;;;1.95;0.77;;;11.40;99.90;;;;;;5027457;28;20486;-81
2022/11/18 03:06:28;;;;;;;1.10;0.70;;;11.40;99.90;;;;;;5027235;28;20135;-80
2022/11/18 03:09:15;;;;;;;1.35;0.75;;;11.40;99.90;;;;;;5003292;28;20233;-80
2022/11/18 03:12:09;;;;;;;0.90;0.60;;;11.40;99.90;;;;;;5016910;28;20032;-80
2022/11/18 03:14:53;;;;;;;2.67;0.85;;;11.40;99.90;;;;;;5033693;28;20290;-80
2022/11/18 03:17:41;;;;;;;1.98;0.70;;;11.40;99.90;;;;;;5003653;28;20087;-80
2022/11/18 03:20:17;;;;;;;1.05;0.70;;;11.40;99.90;;;;;;5030162;28;20044;-80
2022/11/18 03:22:48;;;;;;;1.27;0.85;;;11.40;99.90;;;;;;5009334;28;20116;-80
2022/11/18 03:25:37;;;;;;;1.00;0.80;;;11.30;99.90;;;;;;5020761;28;20041;-80
2022/11/18 03:28:15;;;;;;;1.17;0.77;;;11.20;99.90;;;;;;5024371;28;20028;-80
2022/11/18 03:30:49;;;;;;;1.17;0.90;;;11.20;99.90;;;;;;5062241;28;20017;-80
2022/11/18 03:33:21;;;;;;;2.03;0.90;;;11.20;99.90;;;;;;5019992;28;20036;-80
2022/11/18 03:35:50;;;;;;;1.27;0.70;;;11.20;99.90;;;;;;5031061;28;20029;-81
2022/11/18 03:38:20;;;;;;;0.90;0.70;;;11.10;99.90;;;;;;5011791;28;20270;-80
2022/11/18 03:40:53;;;;;;;1.52;0.73;;;11.10;99.90;;;;;;5027780;28;20025;-80
2022/11/18 03:43:22;;;;;;;2.95;0.85;;;11.00;99.90;;;;;;5042901;28;20116;-81
2022/11/18 03:45:51;;;;;;;1.20;0.70;;;11.00;99.90;;;;;;5031083;28;20017;-80
2022/11/18 03:48:29;;;;;;;2.17;0.80;;;10.90;99.90;;;;;;5039541;28;20028;-80
2022/11/18 03:51:11;;;;;;;1.50;0.80;;;10.90;99.90;;;;;;5051688;28;20116;-80
2022/11/18 03:53:42;;;;;;;1.58;0.73;;;10.80;99.90;;;;;;5009605;28;20354;-80
2022/11/18 03:56:21;;;;;;;1.35;0.80;;;10.80;99.90;;;;;;5023837;28;20029;-80
2022/11/18 03:58:56;;;;;;;0.70;0.50;;;10.80;99.90;;;;;;5027009;28;20086;-80
2022/11/18 04:01:34;;;;;;;1.13;0.70;;;10.70;99.90;;;;;;5032345;28;20021;-80
2022/11/18 04:04:00;;;;;;;0.90;0.70;;;10.70;99.90;;;;;;5026022;28;20048;-80
2022/11/18 04:06:35;;;;;;;1.67;0.80;;;10.60;99.90;;;;;;5030697;28;20123;-80
2022/11/18 04:09:07;;;;;;;1.33;0.52;;;10.60;99.90;;;;;;5047897;28;20048;-80
2022/11/18 04:14:25;;;;;;;1.05;0.80;;;10.50;99.90;;;;;;5009854;28;20544;-80
2022/11/18 04:16:52;;;;;;;1.63;0.80;;;10.50;99.90;;;;;;5058216;28;20104;-80
2022/11/18 04:19:18;;;;;;;0.95;0.70;;;10.40;99.90;;;;;;5021658;28;20028;-80
2022/11/18 04:21:46;;;;;;;0.85;0.70;;;10.40;99.90;;;;;;5033578;28;20414;-80
2022/11/18 04:24:12;;;;;;;1.38;0.80;;;10.30;99.90;;;;;;5036777;28;20031;-80
2022/11/18 04:26:37;;;;;;;1.53;0.70;;;10.30;99.90;;;;;;5027756;28;20017;-80
2022/11/18 04:29:03;;;;;;;0.80;0.60;;;10.30;99.90;;;;;;5022465;28;20989;-80
2022/11/18 04:31:29;;;;;;;1.63;0.90;;;10.30;99.90;;;;;;5016767;28;20246;-80
2022/11/18 04:33:54;;;;;;;1.13;0.80;;;10.20;99.90;;;;;;5028047;28;20124;-80
2022/11/18 04:36:20;;;;;;;1.13;0.83;;;10.20;99.90;;;;;;5022878;28;20610;-80
2022/11/18 04:38:46;;;;;;;1.77;0.53;;;10.10;99.90;;;;;;5057351;28;20537;-80
2022/11/18 04:41:11;;;;;;;1.03;0.80;;;10.10;99.90;;;;;;5011167;28;21536;-80
2022/11/18 04:43:37;;;;;;;0.87;0.60;;;10.10;99.90;;;;;;5047365;28;20036;-80
2022/11/18 04:46:03;;;;;;;1.90;0.90;;;10.10;99.90;;;;;;5008077;28;20033;-80
2022/11/18 04:48:28;;;;;;;2.07;0.90;;;10.10;99.90;;;;;;5023694;28;20292;-80
2022/11/18 04:50:56;;;;;;;1.20;0.80;;;10.10;99.90;;;;;;5018306;28;20029;-80
2022/11/18 04:53:22;;;;;;;1.60;0.80;;;10.10;99.90;;;;;;5026017;28;21032;-80
2022/11/18 04:55:47;;;;;;;1.80;0.80;;;10.10;99.90;;;;;;5045611;28;20079;-80
2022/11/18 04:58:13;;;;;;;1.50;0.90;;;10.10;99.90;;;;;;5002962;28;20123;-80
2022/11/18 05:00:39;;;;;;;1.30;0.73;;;10.10;99.90;;;;;;5003036;28;20026;-80
2022/11/18 05:03:04;;;;;;;1.10;0.70;;;10.10;99.90;;;;;;5037784;28;20078;-80
2022/11/18 05:05:30;;;;;;;1.37;0.70;;;10.20;99.90;;;;;;5013890;28;20240;-80
2022/11/18 05:07:55;;;;;;;2.47;0.90;;;10.10;99.90;;;;;;5040782;28;20288;-80
2022/11/18 05:10:21;;;;;;;1.40;0.83;;;10.10;99.90;;;;;;5022345;28;20137;-80
2022/11/18 05:12:49;;;;;;;2.25;0.70;;;10.10;99.90;;;;;;5004842;28;20029;-80
2022/11/18 05:15:16;;;;;;;1.77;0.82;;;10.10;99.90;;;;;;5040204;28;20178;-80
2022/11/18 05:17:42;;;;;;;2.43;0.70;;;10.10;99.90;;;;;;5016942;28;20024;-80
2022/11/18 05:20:08;;;;;;;0.95;0.60;;;10.00;99.90;;;;;;5030323;28;20385;-80
2022/11/18 05:22:34;;;;;;;1.90;0.70;;;10.00;99.90;;;;;;5020384;28;20492;-80
2022/11/18 05:25:00;;;;;;;1.87;0.80;;;10.00;99.90;;;;;;5035565;28;20044;-80
2022/11/18 05:27:25;;;;;;;1.50;0.73;;;9.90;99.90;;;;;;5011657;28;21676;-80
2022/11/18 05:29:51;;;;;;;1.13;0.70;;;10.00;99.90;;;;;;5016928;28;20525;-80
2022/11/18 05:32:17;;;;;;;0.90;0.80;;;9.90;99.90;;;;;;5036238;28;20356;-81
2022/11/18 05:34:43;;;;;;;0.83;0.77;;;9.90;99.90;;;;;;5012362;28;20292;-80
2022/11/18 05:37:08;;;;;;;1.52;0.88;;;9.90;99.90;;;;;;4994062;28;20162;-80
2022/11/18 05:39:34;;;;;;;2.20;0.90;;;9.90;99.90;;;;;;5023331;28;20555;-80
2022/11/18 05:44:45;;;;;;;1.55;0.70;;;9.90;99.90;;;;;;5025290;28;20405;-80
2022/11/18 05:47:10;;;;;;;1.10;0.83;;;9.80;99.90;;;;;;5000097;28;20030;-80
2022/11/18 05:49:36;;;;;;;2.03;0.88;;;9.80;99.90;;;;;;5032197;28;20029;-80
2022/11/18 05:52:02;;;;;;;2.10;0.77;;;9.80;99.90;;;;;;5032776;28;20029;-80
2022/11/18 05:54:28;;;;;;;1.45;0.80;;;9.80;99.90;;;;;;5031446;28;20041;-80
2022/11/18 05:56:54;;;;;;;1.20;0.80;;;9.70;99.90;;;;;;5030276;28;20029;-80
2022/11/18 05:59:19;;;;;;;0.82;0.80;;;9.70;99.90;;;;;;4986882;28;20037;-80
2022/11/18 06:01:53;;;;;;;2.80;1.00;;;9.80;99.90;;;;;;5029345;28;20418;-80
2022/11/18 06:04:27;;;;;;;1.23;0.70;;;9.70;99.90;;;;;;5025663;28;20017;-80
2022/11/18 06:06:59;;;;;;;1.83;0.90;;;9.70;99.90;;;;;;5008192;28;20134;-80
2022/11/18 06:09:29;;;;;;;1.33;0.80;;;9.70;99.90;;;;;;5002894;28;20625;-80
2022/11/18 06:11:57;;;;;;;1.40;0.80;;;9.70;99.90;;;;;;5030596;28;20017;-79
2022/11/18 06:14:32;;;;;;;1.67;0.80;;;9.70;99.90;;;;;;4989812;28;20401;-80
2022/11/18 06:17:03;;;;;;;1.35;0.90;;;9.60;99.90;;;;;;4999750;28;20333;-80
2022/11/18 06:19:30;;;;;;;2.70;1.08;;;9.60;99.90;;;;;;5028704;28;20627;-79
2022/11/18 06:21:55;;;;;;;1.23;0.80;;;9.60;99.90;;;;;;5012727;28;20509;-80
2022/11/18 06:24:21;;;;;;;1.87;0.80;;;9.60;99.90;;;;;;5007873;28;20024;-80
2022/11/18 06:26:47;;;;;;;2.75;0.80;;;9.60;99.90;;;;;;5036535;28;20024;-80
2022/11/18 06:29:15;;;;;;;0.88;0.70;;;9.60;99.90;;;;;;4994404;28;20030;-80
2022/11/18 06:31:41;;;;;;;1.50;0.80;;;9.60;99.90;;;;;;5023137;28;20047;-80
2022/11/18 06:34:07;;;;;;;1.20;0.70;;;9.60;99.90;;;;;;5020205;28;20898;-80
2022/11/18 06:36:32;;;;;;;1.70;0.90;;;9.50;99.90;;;;;;5025433;28;20052;-80
2022/11/18 06:39:05;;;;;;;1.73;0.80;;;9.50;99.90;;;;;;5040667;28;20698;-79
2022/11/18 06:41:31;;;;;;;1.30;0.73;;;9.50;99.90;;;;;;5039471;28;20614;-80
2022/11/18 06:43:57;;;;;;;1.45;0.70;;;9.50;99.90;;;;;;5004842;28;20335;-79
2022/11/18 06:49:07;;;;;;;1.77;0.70;;;9.40;99.90;;;;;;5016961;28;20492;-79
2022/11/18 06:51:32;;;;;;;1.30;0.73;;;9.40;99.90;;;;;;5051177;28;20017;-79
2022/11/18 06:53:58;;;;;;;0.95;0.70;;;9.40;99.90;;;;;;5022091;28;20258;-80
2022/11/18 06:56:24;;;;;;;1.53;0.90;;;9.40;99.90;;;;;;4997598;28;20132;-79
2022/11/18 06:58:54;;;;;;;0.98;0.70;;;9.40;99.90;;;;;;5055575;28;20029;-80
2022/11/18 07:01:25;;;;;;;1.70;0.77;;;9.30;99.90;;;;;;5015992;28;20044;-79
2022/11/18 07:03:51;;;;;;;1.80;0.77;;;9.30;99.90;;;;;;5033192;28;20025;-82
2022/11/18 07:06:22;;;;;;;2.22;1.00;;;9.30;99.90;;;;;;5014343;28;20068;-82
2022/11/18 07:08:48;;;;;;;0.68;0.68;;;9.30;99.90;;;;;;5020606;28;21062;-82
2022/11/18 07:11:16;;;;;;;1.55;1.00;;;9.30;99.90;;;;;;4984984;28;20022;-81
2022/11/18 07:13:43;;;;;;;1.33;0.70;;;9.30;99.90;;;;;;5030617;28;21219;-81
2022/11/18 07:16:21;;;;;;;1.00;0.80;;;9.20;99.90;;;;;;4997558;28;20314;-80
2022/11/18 07:18:49;;;;;;;2.38;1.05;;;9.20;99.90;;;;;;5024648;28;20715;-80
2022/11/18 07:21:18;;;;;;;1.33;0.90;;;9.30;99.90;;;;;;5016499;28;20297;-80
2022/11/18 07:23:44;;;;;;;1.77;1.05;;;9.20;99.90;;;;;;5030239;28;20425;-80
2022/11/18 07:26:10;;;;;;;1.53;1.10;;;9.30;99.90;;;;;;4988447;28;20270;-80
2022/11/18 07:28:36;;;;;;;2.28;1.10;;;9.30;99.90;;;;;;5024227;28;20028;-79
2022/11/18 07:31:04;;;;;;;2.50;1.27;;;9.30;99.90;;;;;;4995495;28;20346;-80
2022/11/18 07:33:32;;;;;;;1.58;0.98;;;9.30;99.90;;;;;;5032613;28;20109;-80
2022/11/18 07:36:09;;;;;;;1.70;0.80;;;9.30;99.90;;;;;;5008891;28;20322;-80
2022/11/18 07:38:35;;;;;;;1.65;1.00;;;9.40;99.90;;;;;;5026538;28;20076;-80
2022/11/18 07:41:09;;;;;;;2.50;1.10;;;9.40;99.90;;;;;;5001590;28;21071;-80
2022/11/18 07:43:35;;;;;;;2.30;1.00;;;9.40;99.90;;;;;;5031869;28;20037;-80
2022/11/18 07:46:19;;;;;;;3.03;1.00;;;9.50;99.90;;;;;;4987073;28;20261;-80
2022/11/18 07:48:47;;;;;;;2.15;1.15;;;9.60;99.90;;;;;;5026656;28;20309;-80
2022/11/18 07:51:14;;;;;;;3.95;1.70;;;9.60;99.90;;;;;;5020905;28;20020;-79
2022/11/18 07:53:40;;;;;;;4.10;1.90;;;9.70;99.90;;;;;;5027607;28;20021;-80
2022/11/18 07:56:08;;;;;;;3.93;2.00;;;9.70;99.90;;;;;;5026385;28;20043;-80
2022/11/18 07:58:34;;;;;;;5.07;1.77;;;9.80;99.90;;;;;;5020863;28;20044;-80
2022/11/18 08:01:17;;;;;;;3.97;1.92;;;9.80;99.90;;;;;;5035288;28;20255;-80
2022/11/18 08:03:43;;;;;;;4.07;1.85;;;9.90;99.90;;;;;;4997807;28;20497;-80
2022/11/18 08:06:11;;;;;;;2.83;1.45;;;9.90;99.90;;;;;;5016411;28;22579;-80
2022/11/18 08:08:38;;;;;;;2.80;1.20;;;10.00;99.90;;;;;;5042663;28;20026;-80
2022/11/18 08:11:06;;;;;;;2.72;1.10;;;10.10;99.90;;;;;;5017219;28;20028;-79
2022/11/18 08:13:32;;;;;;;3.42;1.10;;;10.10;99.90;;;;;;5026830;28;20292;-80
2022/11/18 08:15:58;;;;;;;2.25;1.08;;;10.10;99.90;;;;;;5025730;28;20120;-79
2022/11/18 08:18:24;;;;;;;2.70;1.10;;;10.20;99.90;;;;;;5006011;28;20027;-80
2022/11/18 08:20:50;;;;;;;2.03;1.10;;;10.30;99.90;;;;;;5008796;28;20130;-79
2022/11/18 08:23:16;;;;;;;2.42;1.00;;;10.30;99.90;;;;;;5012539;28;20021;-80
2022/11/18 08:25:43;;;;;;;1.83;0.90;;;10.30;99.90;;;;;;5019333;28;20341;-80
2022/11/18 08:28:10;;;;;;;1.55;0.80;;;10.50;99.90;;;;;;5006410;28;20213;-79
2022/11/18 08:30:36;;;;;;;2.05;0.90;;;10.50;99.90;;;;;;5022947;28;20028;-79
2022/11/18 08:33:03;;;;;;;1.80;0.88;;;10.50;99.90;;;;;;5022929;28;20033;-80
2022/11/18 08:35:30;;;;;;;2.15;1.13;;;10.60;99.90;;;;;;4986822;28;20498;-80
2022/11/18 08:37:56;;;;;;;2.83;1.20;;;10.60;99.90;;;;;;5020167;28;20266;-81
2022/11/18 08:40:22;;;;;;;1.73;1.02;;;10.60;99.90;;;;;;5026229;28;20071;-79
2022/11/18 08:42:48;;;;;;;3.40;1.50;;;10.70;99.90;;;;;;4998702;28;20891;-79
2022/11/18 08:45:14;;;;;;;4.00;1.47;;;10.70;99.90;;;;;;5026255;28;20036;-79
2022/11/18 08:47:39;;;;;;;2.95;1.00;;;10.70;99.90;;;;;;5020233;28;20488;-80
2022/11/18 08:50:07;;;;;;;2.10;1.20;;;10.70;99.90;;;;;;4999409;28;20033;-79
2022/11/18 08:52:33;;;;;;;1.30;1.00;;;10.80;99.90;;;;;;5015606;28;20035;-80
2022/11/18 08:54:59;;;;;;;1.53;1.00;;;10.80;99.90;;;;;;5019668;28;20037;-79
2022/11/18 08:57:25;;;;;;;2.40;1.13;;;10.80;99.90;;;;;;5015718;28;20337;-79
2022/11/18 08:59:51;;;;;;;4.97;1.27;;;10.80;99.90;;;;;;5011899;28;20225;-80
2022/11/18 09:02:19;;;;;;;5.13;1.60;;;10.80;99.90;;;;;;5019145;28;20033;-79
2022/11/18 09:04:49;;;;;;;4.90;1.42;;;10.90;99.90;;;;;;4997671;28;20120;-80
2022/11/18 09:07:15;;;;;;;2.58;1.20;;;10.90;99.90;;;;;;5027566;28;20032;-79
2022/11/18 09:09:41;;;;;;;2.97;1.20;;;10.90;99.90;;;;;;5005950;28;20018;-80
2022/11/18 09:12:08;;;;;;;3.57;1.20;;;11.00;99.90;;;;;;5018735;28;21113;-80
2022/11/18 09:14:34;;;;;;;3.88;1.30;;;11.00;99.90;;;;;;5004925;28;20267;-80
2022/11/18 09:16:59;;;;;;;2.80;1.25;;;11.10;99.90;;;;;;5036668;28;20045;-80
2022/11/18 09:19:25;;;;;;;2.53;1.20;;;11.10;99.90;;;;;;5023663;28;20057;-80
2022/11/18 09:21:51;;;;;;;2.97;1.15;;;11.20;99.90;;;;;;5010170;28;20036;-80
2022/11/18 09:24:17;;;;;;;2.40;1.10;;;11.30;99.90;;;;;;5015613;28;20021;-79
2022/11/18 09:26:43;;;;;;;1.83;1.23;;;11.30;99.90;;;;;;5034210;28;20017;-78
2022/11/18 09:29:10;;;;;;;3.88;1.48;;;11.40;99.90;;;;;;5020365;28;20432;-80
2022/11/18 09:31:36;;;;;;;2.50;1.40;;;11.40;99.90;;;;;;5017368;28;20215;-79
2022/11/18 09:34:01;;;;;;;2.92;1.50;;;11.50;99.90;;;;;;5052740;28;20029;-80
2022/11/18 09:36:27;;;;;;;6.13;1.63;;;11.50;99.90;;;;;;5002875;28;20041;-79
2022/11/18 09:38:53;;;;;;;3.15;1.55;;;11.60;99.90;;;;;;5006050;28;20029;-80
2022/11/18 09:41:41;;;;;;;3.10;1.70;;;11.70;99.90;;;;;;5016384;28;20496;-79
2022/11/18 09:44:09;;;;;;;3.85;1.80;;;11.70;99.90;;;;;;5021950;28;20051;-80
2022/11/18 09:46:44;;;;;;;4.95;1.63;;;11.80;99.90;;;;;;5017211;28;20081;-80
2022/11/18 09:49:15;;;;;;;2.87;1.70;;;11.90;99.90;;;;;;5032041;28;20033;-80
2022/11/18 09:51:46;;;;;;;3.58;1.67;;;11.90;99.90;;;;;;5028287;28;20341;-79
2022/11/18 09:54:29;;;;;;;4.40;1.42;;;12.00;99.90;;;;;;5041668;28;20048;-80
2022/11/18 09:56:55;;;;;;;2.22;1.58;;;12.00;99.90;;;;;;5023382;28;20033;-80
2022/11/18 09:59:29;;;;;;;2.72;1.50;;;12.10;99.90;;;;;;5047810;28;20083;-81
2022/11/18 10:02:02;;;;;;;2.90;1.30;;;12.10;99.90;;;;;;5014209;28;20025;-79
2022/11/18 10:04:28;;;;;;;3.50;1.40;;;12.20;99.90;;;;;;5027046;28;20017;-80
2022/11/18 10:06:54;;;;;;;3.28;1.40;;;12.20;99.90;;;;;;5016896;28;20026;-80
2022/11/18 10:09:38;;;;;;;2.17;1.27;;;12.20;99.90;;;;;;5010268;28;20549;-81
2022/11/18 10:12:11;;;;;;;3.65;1.70;;;12.30;99.90;;;;;;5031675;28;20183;-80
2022/11/18 10:14:36;;;;;;;2.17;1.20;;;12.30;99.90;;;;;;5017775;28;20231;-80
2022/11/18 10:17:21;;;;;;;3.42;1.30;;;12.30;99.90;;;;;;5018552;28;20489;-79
2022/11/18 10:20:19;;;;;;;2.40;1.10;;;12.40;99.90;;;;;;5023762;28;20101;-80
2022/11/18 10:23:12;;;;;;;2.45;1.20;;;12.40;99.90;;;;;;4990615;28;20063;-80
2022/11/18 10:25:37;;;;;;;1.92;1.13;;;12.40;99.90;;;;;;5025550;28;20413;-80
2022/11/18 10:28:32;;;;;;;2.80;1.20;;;12.50;99.90;;;;;;5017083;28;20207;-80
2022/11/18 10:31:10;;;;;;;4.00;1.60;;;12.50;99.90;;;;;;5005999;28;20114;-81
2022/11/18 10:33:36;;;;;;;2.85;1.50;;;12.60;99.90;;;;;;4997180;28;20107;-81
2022/11/18 10:36:26;;;;;;;4.28;1.50;;;12.60;99.90;;;;;;5011887;28;20055;-82
2022/11/18 10:39:27;;;;;;;2.83;1.30;;;12.60;99.90;;;;;;4994658;28;20059;-82
2022/11/18 10:42:03;;;;;;;4.67;1.40;;;12.60;99.90;;;;;;5006760;28;20056;-80
2022/11/18 10:44:33;;;;;;;2.65;1.30;;;12.70;99.90;;;;;;5009920;28;20033;-80
2022/11/18 10:47:26;;;;;;;2.40;1.33;;;12.70;99.90;;;;;;5011786;28;20072;-80
2022/11/18 10:49:54;;;;;;;4.35;1.45;;;12.70;99.90;;;;;;5004123;28;20407;-80
2022/11/18 10:52:21;;;;;;;2.75;1.20;;;12.70;99.90;;;;;;5011261;28;20191;-80
2022/11/18 10:55:13;;;;;;;2.40;1.10;;;12.80;99.90;;;;;;5007800;28;20049;-80
2022/11/18 10:57:42;;;;;;;2.10;1.30;;;12.80;99.90;;;;;;5043061;28;20108;-80
2022/11/18 11:00:41;;;;;;;2.90;1.20;;;12.80;99.90;;;;;;5016452;28;20151;-80
2022/11/18 11:03:25;;;;;;;2.38;1.10;;;12.80;99.90;;;;;;5021626;28;20463;-79
2022/11/18 11:06:25;;;;;;;2.95;1.20;;;12.90;99.90;;;;;;5030497;28;20033;-80
2022/11/18 11:08:53;;;;;;;3.47;1.00;;;12.90;99.90;;;;;;5001244;28;20091;-80
2022/11/18 11:11:59;;;;;;;2.88;1.38;;;12.90;99.90;;;;;;5019249;28;20145;-80
2022/11/18 11:14:31;;;;;;;4.00;1.35;;;12.90;99.90;;;;;;5008677;28;20100;-80
2022/11/18 11:17:11;;;;;;;2.90;1.20;;;13.00;99.90;;;;;;5011939;28;20045;-80
2022/11/18 11:20:03;;;;;;;2.70;1.20;;;13.00;99.90;;;;;;5035887;28;20099;-80
2022/11/18 11:22:29;;;;;;;1.80;0.90;;;13.00;99.90;;;;;;5013864;28;20070;-80
2022/11/18 11:24:55;;;;;;;2.38;1.13;;;13.00;99.90;;;;;;5001123;28;20503;-80
2022/11/18 11:27:27;;;;;;;3.13;1.10;;;13.00;99.90;;;;;;5054541;28;20750;-80
2022/11/18 11:30:01;;;;;;;2.20;1.00;;;13.00;99.90;;;;;;5012922;28;20612;-80
2022/11/18 11:32:41;;;;;;;1.83;1.10;;;12.90;99.90;;;;;;5013457;28;20018;-80
2022/11/18 11:35:21;;;;;;;2.17;0.90;;;12.90;99.90;;;;;;5010566;28;20087;-80
2022/11/18 11:37:55;;;;;;;1.88;1.00;;;12.90;99.90;;;;;;5017996;28;20028;-80
2022/11/18 11:40:28;;;;;;;2.10;1.20;;;12.90;99.90;;;;;;4997729;28;20041;-81
2022/11/18 11:43:12;;;;;;;2.53;1.00;;;12.90;99.90;;;;;;5025879;28;20077;-80
2022/11/18 11:46:06;;;;;;;3.40;0.90;;;12.90;99.90;;;;;;5036514;28;20576;-79
2022/11/18 11:49:06;;;;;;;1.52;0.75;;;12.90;99.90;;;;;;5018980;28;20235;-80
2022/11/18 11:51:55;;;;;;;2.15;1.00;;;12.90;99.90;;;;;;5018559;28;20059;-80
2022/11/18 11:54:42;;;;;;;2.92;0.90;;;12.90;99.90;;;;;;5029482;28;20518;-79
2022/11/18 11:57:19;;;;;;;1.42;1.00;;;12.90;99.90;;;;;;5008482;28;20095;-80
2022/11/18 12:00:03;;;;;;;1.93;0.90;;;12.90;99.90;;;;;;5013709;28;20556;-80
2022/11/18 12:02:47;;;;;;;2.08;1.00;;;12.80;99.90;;;;;;5013170;28;20546;-80
2022/11/18 12:05:34;;;;;;;1.33;0.80;;;12.90;99.90;;;;;;5001075;28;20041;-80
2022/11/18 12:08:08;;;;;;;3.03;0.90;;;12.90;99.90;;;;;;5029811;28;20036;-79
2022/11/18 12:10:50;;;;;;;1.85;0.80;;;12.90;99.90;;;;;;5006393;28;20420;-79
2022/11/18 12:13:31;;;;;;;3.10;1.00;;;12.90;99.90;;;;;;5031725;28;20112;-80
2022/11/18 12:16:22;;;;;;;2.10;0.82;;;12.90;99.90;;;;;;5018922;28;20351;-80
2022/11/18 12:18:58;;;;;;;1.67;1.15;;;13.00;99.90;;;;;;5016458;28;20025;-80
2022/11/18 12:21:43;;;;;;;1.90;1.05;;;13.00;99.90;;;;;;5001338;28;20075;-80
2022/11/18 12:24:38;;;;;;;1.70;1.13;;;13.00;99.90;;;;;;5044956;28;20337;-80
2022/11/18 12:27:11;;;;;;;1.90;1.27;;;13.00;99.90;;;;;;5032038;28;20470;-81
2022/11/18 12:29:40;;;;;;;2.10;1.15;;;13.00;99.90;;;;;;5051687;28;20022;-80
2022/11/18 12:32:25;;;;;;;2.47;1.30;;;13.00;99.90;;;;;;5019283;28;20029;-81
2022/11/18 12:35:04;;;;;;;3.03;1.33;;;12.90;99.90;;;;;;5009797;28;20056;-82
2022/11/18 12:37:50;;;;;;;1.90;1.10;;;12.90;99.90;;;;;;5003769;28;20369;-81
2022/11/18 12:40:43;;;;;;;2.47;1.20;;;12.80;99.90;;;;;;5024730;28;20069;-81
2022/11/18 12:46:09;;;;;;;1.75;0.98;;;12.70;99.90;;;;;;5014951;28;22065;-81
2022/11/18 12:48:40;;;;;;;1.58;1.02;;;12.70;99.90;;;;;;5018745;28;20018;-82
2022/11/18 12:51:15;;;;;;;2.20;1.05;;;12.60;99.90;;;;;;5010240;28;21109;-81
2022/11/18 12:53:42;;;;;;;1.60;1.10;;;12.60;99.90;;;;;;5027031;28;20071;-82
2022/11/18 12:56:16;;;;;;;2.30;1.20;;;12.50;99.90;;;;;;5034485;28;20563;-82
2022/11/18 12:58:58;;;;;;;1.90;1.15;;;12.50;99.90;;;;;;5014350;28;20045;-83
2022/11/18 13:01:34;;;;;;;1.60;1.02;;;12.40;99.90;;;;;;5021658;28;20129;-81
2022/11/18 13:04:15;;;;;;;2.20;1.15;;;12.40;99.90;;;;;;5022059;28;20576;-82
2022/11/18 13:06:41;;;;;;;2.30;1.20;;;12.40;99.90;;;;;;5034121;28;20049;-82
2022/11/18 13:09:16;;;;;;;2.58;1.10;;;12.40;99.90;;;;;;5011862;28;20147;-82
2022/11/18 13:12:00;;;;;;;1.73;1.13;;;12.40;99.90;;;;;;5025371;28;20076;-83
2022/11/18 13:20:31;;;;;;;2.27;1.50;;;12.40;99.90;;;;;;5037768;28;20530;-82
2022/11/18 13:25:46;;;;;;;4.95;2.50;;;12.30;99.90;;;;;;5020938;28;20130;-83
2022/11/18 13:28:43;;;;;;;4.72;2.83;;;12.30;99.90;;;;;;5031774;28;20136;-83
2022/11/18 13:31:12;;;;;;;4.00;2.30;;;12.30;99.90;;;;;;5019244;28;20029;-83
2022/11/18 13:33:39;;;;;;;4.30;2.23;;;12.30;99.90;;;;;;5009968;28;20053;-84
2022/11/18 13:36:19;;;;;;;4.68;1.92;;;12.30;99.90;;;;;;5021662;28;20130;-84
2022/11/18 13:38:55;;;;;;;3.50;1.63;;;12.20;99.90;;;;;;5049401;28;20032;-84